Flight Track Log - Related Links

Times and Time Zones

All times are in EDT time to prevent confusion due to time zone crossing. See the SWA525 flight status page for this flight to view local times or setup timezone preferences in your user account.

Time Position Orientation Groundspeed Altitude Reporting Facility
EDT Latitude Longitude Course Direction KTS MPH feet Rate Location/Type
Tue 05:53:08 PM 30.0564 -90.2278 16° North 196 226 2,600  Level Houston Center
Tue 05:54:10 PM 30.1131 -90.1944 27° Northeast 233 268 5,500 2,468 Climbing Houston Center
Tue 05:55:12 PM 30.0681 -90.1386 133° Southeast 273 314 7,700 2,468 Climbing Houston Center
Tue 05:56:14 PM 29.9733 -90.0964 159° South 301 346 10,600 2,661 Climbing Houston Center
Tue 05:57:16 PM 29.8831 -90.0556 159° South 332 382 13,200 2,323 Climbing Houston Center
Tue 05:58:18 PM 29.8172 -89.9686 131° Southeast 359 413 15,400 2,129 Climbing Houston Center
Tue 05:59:20 PM 29.7492 -89.8736 130° Southeast 375 432 17,600 1,839 Climbing Houston Center
Tue 06:00:22 PM 29.6792 -89.7778 130° Southeast 392 451 19,200 1,790 Climbing Houston Center
Tue 06:01:24 PM 29.5872 -89.6533 130° Southeast 425 489 21,300 2,016 Climbing Houston Center
Tue 06:02:27 PM 29.5092 -89.5461 130° Southeast 433 498 23,400 1,872 Climbing Houston Center
Tue 06:03:29 PM 29.4311 -89.4383 130° Southeast 439 505 25,200 1,500 Climbing Houston Center
Tue 06:04:31 PM 29.3500 -89.3283 130° Southeast 450 518 26,500 1,306 Climbing Houston Center
Tue 06:05:33 PM 29.2683 -89.2181 130° Southeast 454 522 27,900 1,210 Climbing Houston Center
Tue 06:06:35 PM 29.1672 -89.0803 130° Southeast 469 540 29,000 1,113 Climbing Houston Center
Tue 06:07:37 PM 29.0808 -88.9644 130° Southeast 478 550 30,200 1,306 Climbing Houston Center
Tue 06:08:39 PM 28.9953 -88.8489 130° Southeast 476 548 31,700 1,306 Climbing Houston Center
Tue 06:09:41 PM 28.9092 -88.7364 131° Southeast 472 543 32,900 1,065 Climbing Houston Center
Tue 06:10:43 PM 28.8569 -88.6014 114° Southeast 471 542 33,900 823 Climbing Houston Center
Tue 06:11:45 PM 28.8175 -88.4581 107° East 475 547 34,600 528 Climbing Houston Center
Tue 06:12:48 PM 28.7692 -88.2878 108° East 473 544 35,000 192 Climbing Houston Center
Tue 06:13:50 PM 28.7283 -88.1444 108° East 476 548 35,000  Level Houston Center
Tue 06:14:52 PM 28.6919 -88.0153 108° East 471 542 35,000  Level Houston Center
Tue 06:15:55 PM 28.6450 -87.8442 107° East 473 544 35,000  Level Houston Center
Tue 06:16:56 PM 28.6042 -87.7025 108° East 472 543 35,000  Level Houston Center
Tue 06:17:58 PM 28.5642 -87.5617 108° East 471 542 35,000  Level Houston Center
Tue 06:18:26 PM 28.5472 -87.4981 107° East 458 527 35,000  Level Jacksonville Center
Tue 06:19:26 PM 28.5003 -87.3519 110° East 467 537 35,000  Level Jacksonville Center
Tue 06:20:26 PM 28.4653 -87.2158 106° East 467 537 35,000  Level Jacksonville Center
Tue 06:21:26 PM 28.4239 -87.0772 109° East 465 535 35,000  Level Jacksonville Center
Tue 06:22:26 PM 28.3906 -86.9461 106° East 458 527 35,000  Level Jacksonville Center
Tue 06:23:26 PM 28.3394 -86.7789 109° East 474 545 35,000  Level Jacksonville Center
Tue 06:24:26 PM 28.2978 -86.6383 109° East 474 545 35,000  Level Jacksonville Center
Tue 06:25:26 PM 28.2600 -86.5050 108° East 463 533 35,000  Level Jacksonville Center
Tue 06:26:26 PM 28.2158 -86.3597 109° East 472 543 35,000  Level Jacksonville Center
Tue 06:27:26 PM 28.1739 -86.2169 108° East 467 537 35,000  Level Jacksonville Center
Tue 06:28:26 PM 28.1314 -86.0767 109° East 471 542 35,000  Level Jacksonville Center
Tue 06:29:27 PM 28.0889 -85.9319 108° East 465 535 35,000  Level Jacksonville Center
Tue 06:30:26 PM 28.0464 -85.7894 109° East 472 543 35,000  Level Jacksonville Center
Tue 06:31:27 PM 27.9994 -85.6450 110° East 479 551 35,000  Level Jacksonville Center
Tue 06:32:26 PM 27.9564 -85.5050 109° East 490 564 35,000  Level Jacksonville Center
Tue 06:34:22 PM 27.8761 -85.2153 107° East 502 578 35,000  Level Miami Center
Tue 06:35:22 PM 27.8536 -85.0589 99° East 496 571 35,000  Level Miami Center
Tue 06:36:22 PM 27.8361 -84.9286 99° East 491 565 35,000  Level Miami Center
Tue 06:37:22 PM 27.8239 -84.7731 95° East 491 565 35,000  Level Miami Center
Tue 06:38:22 PM 27.8281 -84.6211 88° East 491 565 35,000  Level Miami Center
Tue 06:39:22 PM 27.8217 -84.4681 93° East 491 565 35,000  Level Miami Center
Tue 06:40:22 PM 27.8253 -84.3183 88° East 484 557 35,000  Level Miami Center
Tue 06:41:22 PM 27.8311 -84.1639 88° East 484 557 35,000  Level Miami Center
Tue 06:42:22 PM 27.8261 -84.0136 92° East 484 557 35,000  Level Miami Center
Tue 06:43:22 PM 27.8211 -83.8608 92° East 479 551 35,000  Level Miami Center
Tue 06:44:22 PM 27.8306 -83.7114 86° East 479 551 35,000 -150 Level Miami Center
Tue 06:45:22 PM 27.8275 -83.5564 91° East 479 551 34,700 -600 Descending Miami Center
Tue 06:46:22 PM 27.8281 -83.4039 90° East 479 551 33,800 -950 Descending Miami Center
Tue 06:47:22 PM 27.8269 -83.2467 90° East 484 557 32,800 -1,000 Descending Miami Center
Tue 06:48:22 PM 27.8275 -83.0919 90° East 490 564 31,800 -1,350 Descending Miami Center
Tue 06:49:22 PM 27.8278 -82.9347 90° East 495 570 30,100 -2,000 Descending Miami Center
Tue 06:50:22 PM 27.8203 -82.7678 93° East 500 575 27,800 -2,250 Descending Miami Center
Tue 06:51:22 PM 27.8239 -82.6247 88° East 474 545 25,600 -2,150 Descending Miami Center
Tue 06:52:22 PM 27.8314 -82.4892 86° East 448 516 23,500 -2,100 Descending Miami Center
Tue 06:53:22 PM 27.8717 -82.3644 70° East 431 496 21,400 -2,050 Descending Miami Center
Tue 06:54:22 PM 27.9117 -82.2442 69° East 410 472 19,400 -1,959 Descending Miami Center
Tue 06:56:35 PM 28.0000 -82.0000 68° East 371 427 15,100 -1,899 Descending Orlando TRACON
Tue 06:57:41 PM 28.0500 -81.8833 64° Northeast 361 415 13,100 -1,000 Descending Orlando TRACON
Tue 06:58:41 PM 28.1000 -81.7833 60° Northeast 356 410 13,000 -496 Descending Orlando TRACON
Tue 06:59:42 PM 28.1500 -81.7000 56° Northeast 353 406 12,100 -1,041 Descending Orlando TRACON
Tue 07:00:42 PM 28.2000 -81.6167 56° Northeast 320 368 10,900 -1,200 Descending Orlando TRACON
Tue 07:01:42 PM 28.2500 -81.5167 60° Northeast 306 352 9,700 -950 Descending Orlando TRACON
Tue 07:02:42 PM 28.3000 -81.4500 50° Northeast 303 349 9,000 -500 Descending Orlando TRACON
Tue 07:03:42 PM 28.3833 -81.4167 19° North 277 319 8,700 -1,050 Descending Orlando TRACON
Tue 07:04:42 PM 28.4667 -81.4167 360° North 289 333 6,900 -1,476 Descending Orlando TRACON
Tue 07:05:48 PM 28.5500 -81.4167 360° North 261 300 5,600 -893 Descending Orlando TRACON
Tue 07:06:43 PM 28.6000 -81.4167 360° North 223 257 5,100 -900 Descending Orlando TRACON
Tue 07:07:48 PM 28.6500 -81.3833 30° Northeast 214 246 3,800 -1,238 Descending Orlando TRACON
Tue 07:08:49 PM 28.6000 -81.3667 164° South 203 234 2,500 -678 Descending Orlando TRACON
Tue 07:09:43 PM 28.5500 -81.3333 150° Southeast 173 199 2,500 -600 Level Orlando TRACON
Tue 07:10:49 PM 28.5000 -81.3167 164° South 144 166 1,300 -952 Descending Orlando TRACON
Tue 07:11:49 PM 28.4667 -81.3167 180° South 151 174 500 -800 Descending Orlando TRACON

Login

Don't have an account? Register now (free) for customized features, flight alerts, and more!